createdAt,value
2022-09-05T00:01:31.593Z,82.32
2022-09-05T00:04:46.426Z,81.65
2022-09-05T00:07:57.998Z,81.83
2022-09-05T00:10:35.973Z,82.40
2022-09-05T00:13:09.038Z,83.50
2022-09-05T00:15:51.807Z,82.56
2022-09-05T00:24:20.153Z,80.85
2022-09-05T00:24:26.254Z,82.30
2022-09-05T00:25:35.659Z,81.27
2022-09-05T00:28:25.273Z,82.04
2022-09-05T00:31:53.538Z,82.49
2022-09-05T00:34:06.608Z,82.63
2022-09-05T00:36:54.798Z,82.70
2022-09-05T00:39:38.404Z,82.96
2022-09-05T00:42:11.251Z,83.33
2022-09-05T00:44:50.966Z,82.99
2022-09-05T00:47:33.445Z,83.15
2022-09-05T00:50:07.566Z,82.51
2022-09-05T00:52:42.952Z,82.67
2022-09-05T00:55:58.804Z,83.10
2022-09-05T00:58:46.257Z,83.07
2022-09-05T01:01:29.391Z,82.92
2022-09-05T01:04:19.303Z,81.51
2022-09-05T01:07:03.665Z,82.91
2022-09-05T01:09:57.926Z,82.98
2022-09-05T01:13:05.287Z,82.41
2022-09-05T01:15:56.917Z,80.95
2022-09-05T01:18:32.721Z,82.72
2022-09-05T01:21:17.353Z,83.17
2022-09-05T01:24:07.428Z,82.76
2022-09-05T01:26:48.117Z,82.74
2022-09-05T01:29:40.062Z,82.96
2022-09-05T01:32:26.855Z,83.37
2022-09-05T01:35:01.236Z,83.66
2022-09-05T01:38:13.243Z,83.27
2022-09-05T01:41:04.626Z,83.20
2022-09-05T01:43:53.081Z,82.88
2022-09-05T01:46:34.938Z,82.18
2022-09-05T01:49:41.943Z,82.63
2022-09-05T01:52:29.134Z,84.35
2022-09-05T01:55:26.954Z,83.97
2022-09-05T01:58:16.332Z,84.19
2022-09-05T02:01:32.582Z,85.37
2022-09-05T02:04:08.634Z,83.83
2022-09-05T02:06:52.659Z,84.02
2022-09-05T02:09:40.162Z,84.14
2022-09-05T02:12:15.785Z,83.54
2022-09-05T02:14:45.244Z,84.25
2022-09-05T02:17:50.638Z,84.52
2022-09-05T02:20:26.654Z,85.30
2022-09-05T02:22:56.053Z,84.75
2022-09-05T02:26:01.060Z,83.43
2022-09-05T02:28:43.538Z,84.35
2022-09-05T02:31:39.339Z,84.30
2022-09-05T02:34:45.026Z,84.76
2022-09-05T02:38:51.053Z,83.95
2022-09-05T02:45:19.183Z,84.52
2022-09-05T02:45:21.088Z,84.12
2022-09-05T02:46:42.135Z,84.68
2022-09-05T02:51:50.829Z,83.35
2022-09-05T02:57:28.839Z,83.07
2022-09-05T02:57:47.027Z,82.90
2022-09-05T02:58:07.217Z,83.66
2022-09-05T03:00:44.394Z,84.04
2022-09-05T03:03:34.892Z,83.64
2022-09-05T03:06:34.959Z,82.97
2022-09-05T03:09:35.604Z,83.60
2022-09-05T03:12:29.238Z,84.06
2022-09-05T03:15:22.389Z,85.04
2022-09-05T03:18:21.046Z,85.54
2022-09-05T03:21:22.327Z,85.07
2022-09-05T03:24:22.975Z,85.51
2022-09-05T03:27:35.486Z,84.18
2022-09-05T03:30:21.364Z,83.40
2022-09-05T03:33:25.237Z,84.66
2022-09-05T03:36:28.352Z,84.34
2022-09-05T03:39:19.521Z,83.53
2022-09-05T03:42:02.924Z,83.74
2022-09-05T03:44:54.144Z,83.08
2022-09-05T03:47:37.655Z,84.06
2022-09-05T03:57:04.688Z,84.61
2022-09-05T03:57:17.190Z,85.58
2022-09-05T03:57:32.255Z,83.73
2022-09-05T04:00:02.364Z,82.07
2022-09-05T04:05:38.003Z,82.77
2022-09-05T04:08:13.435Z,83.04
2022-09-05T04:08:38.696Z,84.73
2022-09-05T04:11:15.729Z,84.22
2022-09-05T04:13:51.101Z,83.93
2022-09-05T04:16:20.116Z,83.01
2022-09-05T04:19:11.390Z,84.54
2022-09-05T04:22:14.313Z,86.53
2022-09-05T04:25:03.950Z,86.29
2022-09-05T04:27:36.215Z,85.83
2022-09-05T04:30:39.862Z,84.92
2022-09-05T04:33:36.716Z,83.72
2022-09-05T04:36:23.795Z,83.64
2022-09-05T04:39:18.948Z,84.49
2022-09-05T04:42:11.067Z,84.33
2022-09-05T04:44:44.359Z,84.34
2022-09-05T04:47:23.622Z,84.03
2022-09-05T04:50:00.842Z,84.03
2022-09-05T04:53:05.007Z,84.09
2022-09-05T04:55:50.927Z,84.12
2022-09-05T04:59:20.272Z,84.88
2022-09-05T05:06:05.152Z,84.89
2022-09-05T05:06:11.542Z,85.97
2022-09-05T05:07:30.243Z,86.57
2022-09-05T05:10:45.262Z,86.90
2022-09-05T05:17:59.820Z,85.47
2022-09-05T05:18:06.251Z,86.11
2022-09-05T05:19:21.561Z,85.88
2022-09-05T05:21:52.567Z,86.82
2022-09-05T05:24:28.735Z,87.23
2022-09-05T05:27:05.306Z,88.12
2022-09-05T05:29:43.440Z,88.75
2022-09-05T05:32:26.153Z,87.58
2022-09-05T05:35:23.237Z,86.68
2022-09-05T05:37:56.000Z,87.25
2022-09-05T05:40:31.633Z,88.17
2022-09-05T05:43:15.692Z,90.23
2022-09-05T05:45:42.886Z,90.14
2022-09-05T05:48:18.271Z,90.19
2022-09-05T05:51:20.055Z,91.29
2022-09-05T05:54:16.404Z,90.60
2022-09-05T05:56:52.408Z,91.16
2022-09-05T05:59:56.317Z,90.77
2022-09-05T06:02:46.695Z,90.87
2022-09-05T06:05:59.304Z,92.16
2022-09-05T06:14:51.311Z,91.83
2022-09-05T06:15:06.149Z,91.71
2022-09-05T06:15:40.360Z,91.86
2022-09-05T06:18:19.120Z,91.82
2022-09-05T06:22:10.169Z,91.10
2022-09-05T06:25:05.551Z,91.27
2022-09-05T06:28:19.158Z,91.82
2022-09-05T06:31:30.185Z,91.50
2022-09-05T06:34:33.118Z,91.51
2022-09-05T06:37:03.400Z,91.62
2022-09-05T06:40:05.912Z,90.77
2022-09-05T06:42:44.294Z,90.66
2022-09-05T06:45:34.286Z,90.40
2022-09-05T06:48:24.907Z,90.44
2022-09-05T06:51:44.729Z,90.29
2022-09-05T06:54:11.419Z,89.89
2022-09-05T06:57:23.990Z,90.33
2022-09-05T07:00:05.815Z,89.54
2022-09-05T07:03:00.638Z,89.29
2022-09-05T07:05:45.491Z,89.21
2022-09-05T07:08:34.717Z,88.36
2022-09-05T07:11:15.860Z,88.07
2022-09-05T07:14:10.408Z,87.95
2022-09-05T07:16:50.867Z,87.02
2022-09-05T07:19:41.211Z,86.70
2022-09-05T07:22:47.966Z,87.18
2022-09-05T07:25:22.795Z,87.04
2022-09-05T07:28:29.103Z,86.32
2022-09-05T07:31:01.096Z,86.58
2022-09-05T07:33:31.109Z,86.78
2022-09-05T07:36:08.699Z,86.53
2022-09-05T07:38:52.040Z,86.34
2022-09-05T07:41:29.787Z,85.34
2022-09-05T07:44:05.007Z,85.41
2022-09-05T07:46:33.645Z,84.77
2022-09-05T07:49:07.266Z,83.87
2022-09-05T07:56:48.066Z,84.17
2022-09-05T07:57:06.014Z,83.32
2022-09-05T07:57:51.893Z,83.01
2022-09-05T08:00:25.872Z,82.33
2022-09-05T08:02:58.093Z,81.64
2022-09-05T08:05:35.916Z,80.80
2022-09-05T08:08:09.854Z,79.82
2022-09-05T08:11:24.015Z,79.41
2022-09-05T08:13:46.450Z,79.59
2022-09-05T08:16:23.157Z,79.83
2022-09-05T08:19:24.779Z,79.31
2022-09-05T08:21:53.718Z,78.82
2022-09-05T08:24:26.780Z,78.93
2022-09-05T08:27:04.622Z,77.98
2022-09-05T08:29:36.364Z,77.29
2022-09-05T08:32:09.539Z,77.17
2022-09-05T08:34:53.961Z,76.85
2022-09-05T08:37:23.014Z,76.50
2022-09-05T08:39:54.327Z,76.35
2022-09-05T08:42:58.755Z,74.95
2022-09-05T08:46:39.789Z,74.62
2022-09-05T08:49:11.270Z,74.61
2022-09-05T08:51:54.502Z,74.73
2022-09-05T08:54:21.921Z,73.61
2022-09-05T08:57:07.632Z,73.01
2022-09-05T09:00:19.057Z,71.52
2022-09-05T09:03:12.355Z,72.16
2022-09-05T09:06:12.704Z,71.46
2022-09-05T09:09:25.279Z,70.15
2022-09-05T09:11:56.987Z,70.72
2022-09-05T09:14:51.295Z,69.95
2022-09-05T09:17:43.001Z,69.13
2022-09-05T09:20:36.525Z,69.00
2022-09-05T09:23:39.783Z,67.66
2022-09-05T09:26:18.280Z,66.87
2022-09-05T09:28:55.539Z,67.46
2022-09-05T09:31:33.620Z,66.39
2022-09-05T09:34:18.646Z,65.16
2022-09-05T09:37:11.079Z,66.20
2022-09-05T09:40:05.377Z,67.43
2022-09-05T09:42:40.728Z,67.29
2022-09-05T09:45:34.040Z,65.89
2022-09-05T09:48:09.674Z,63.56
2022-09-05T09:50:59.336Z,63.36
2022-09-05T09:53:57.977Z,63.94
2022-09-05T09:57:11.580Z,61.82
2022-09-05T09:59:57.546Z,61.57
2022-09-05T10:07:38.171Z,61.59
2022-09-05T10:10:45.545Z,59.75
2022-09-05T10:10:49.224Z,59.17
2022-09-05T10:12:16.361Z,59.47
2022-09-05T10:15:09.583Z,59.87
2022-09-05T10:17:55.202Z,59.33
2022-09-05T10:20:24.978Z,57.36
2022-09-05T10:22:56.698Z,57.40
2022-09-05T10:25:48.530Z,56.87
2022-09-05T10:28:40.015Z,56.98
2022-09-05T10:34:29.560Z,55.51
2022-09-05T10:35:14.164Z,52.64
2022-09-05T10:37:43.515Z,54.19
2022-09-05T10:40:14.840Z,54.20
2022-09-05T10:43:00.761Z,52.73
2022-09-05T10:45:46.986Z,52.53
2022-09-05T10:48:19.479Z,54.45
2022-09-05T10:51:01.025Z,56.13
2022-09-05T10:53:45.295Z,57.92
2022-09-05T10:56:16.546Z,56.75
2022-09-05T10:59:53.261Z,58.50
2022-09-05T11:02:27.979Z,58.24
2022-09-05T11:05:25.297Z,55.74
2022-09-05T11:08:19.759Z,56.16
2022-09-05T11:10:52.484Z,56.00
2022-09-05T11:13:30.791Z,51.55
2022-09-05T11:16:18.180Z,53.34
2022-09-05T11:19:08.968Z,53.05
2022-09-05T11:22:04.179Z,51.35
2022-09-05T11:25:00.249Z,52.08
2022-09-05T11:27:34.560Z,51.39
2022-09-05T11:30:04.376Z,50.08
2022-09-05T11:39:46.769Z,51.43
2022-09-05T11:39:50.616Z,49.03
2022-09-05T11:40:07.750Z,49.08
2022-09-05T11:42:55.371Z,49.01
2022-09-05T11:45:54.414Z,47.56
2022-09-05T11:48:41.891Z,43.83
2022-09-05T11:51:58.383Z,45.94
2022-09-05T11:54:49.927Z,46.46
2022-09-05T11:57:44.387Z,48.90
2022-09-05T12:00:34.512Z,47.64
2022-09-05T12:03:57.587Z,47.34
2022-09-05T12:06:38.176Z,46.44
2022-09-05T12:09:29.614Z,47.44
2022-09-05T12:12:39.552Z,47.42
2022-09-05T12:15:33.781Z,44.33
2022-09-05T12:18:19.435Z,45.27
2022-09-05T12:21:03.428Z,45.47
2022-09-05T12:24:53.377Z,46.00
2022-09-05T12:27:42.867Z,48.23
2022-09-05T12:29:59.356Z,49.87
2022-09-05T12:36:07.239Z,49.76
2022-09-05T12:40:52.913Z,52.21
2022-09-05T12:41:44.997Z,50.71
2022-09-05T12:42:09.961Z,49.31
2022-09-05T12:45:09.686Z,50.52
2022-09-05T12:48:12.321Z,51.31
2022-09-05T12:51:00.304Z,52.05
2022-09-05T12:53:39.700Z,54.75
2022-09-05T12:58:21.356Z,53.38
2022-09-05T13:02:57.718Z,50.12
2022-09-05T13:03:08.950Z,46.99
2022-09-05T13:05:01.901Z,46.00
2022-09-05T13:07:38.798Z,45.84
2022-09-05T13:13:27.439Z,44.72
2022-09-05T13:14:58.635Z,44.66
2022-09-05T13:16:30.686Z,44.32
2022-09-05T13:19:07.284Z,44.51
2022-09-05T13:21:45.459Z,44.81
2022-09-05T13:24:17.291Z,45.13
2022-09-05T13:26:57.548Z,42.83
2022-09-05T13:29:52.550Z,44.97
2022-09-05T13:32:32.342Z,44.10
2022-09-05T13:38:17.737Z,42.68
2022-09-05T13:41:04.324Z,41.26
2022-09-05T13:43:38.231Z,40.20
2022-09-05T13:46:09.557Z,41.22
2022-09-05T13:51:43.643Z,38.71
2022-09-05T13:54:36.187Z,39.39
2022-09-05T13:57:32.521Z,40.38
2022-09-05T14:00:28.356Z,40.53
2022-09-05T14:03:38.979Z,39.67
2022-09-05T14:06:45.794Z,39.61
2022-09-05T14:09:38.538Z,39.93
2022-09-05T14:12:11.779Z,38.73
2022-09-05T14:15:14.093Z,40.12
2022-09-05T14:17:55.854Z,40.48
2022-09-05T14:20:47.313Z,39.60
2022-09-05T14:23:18.805Z,40.28
2022-09-05T14:25:57.910Z,40.28
2022-09-05T14:28:33.583Z,41.01
2022-09-05T14:35:22.129Z,40.67
2022-09-05T14:37:40.130Z,40.49
2022-09-05T14:37:43.860Z,40.59
2022-09-05T14:40:29.613Z,41.50
2022-09-05T14:43:34.488Z,40.28
2022-09-05T14:46:39.048Z,40.69
2022-09-05T14:49:34.402Z,39.97
2022-09-05T14:52:14.974Z,39.64
2022-09-05T15:02:42.810Z,39.25
2022-09-05T15:02:44.983Z,39.09
2022-09-05T15:03:12.432Z,39.29
2022-09-05T15:05:45.576Z,39.64
2022-09-05T15:10:21.955Z,39.81
2022-09-05T15:12:17.891Z,40.38
2022-09-05T15:14:04.079Z,39.48
2022-09-05T15:16:38.641Z,39.53
2022-09-05T15:19:08.631Z,39.76
2022-09-05T15:21:38.338Z,39.81
2022-09-05T15:24:24.290Z,39.43
2022-09-05T15:26:59.289Z,40.06
2022-09-05T15:29:31.931Z,39.98
2022-09-05T15:32:22.457Z,40.24
2022-09-05T15:34:50.774Z,39.96
2022-09-05T15:37:40.354Z,40.69
2022-09-05T15:40:22.482Z,39.85
2022-09-05T15:42:56.672Z,39.98
2022-09-05T15:45:27.771Z,40.02
2022-09-05T15:48:21.318Z,39.84
2022-09-05T15:50:51.725Z,39.96
2022-09-05T15:53:36.921Z,40.08
2022-09-05T15:56:09.572Z,40.17
2022-09-05T15:58:53.595Z,40.76
2022-09-05T16:01:59.096Z,40.35
2022-09-05T16:10:28.638Z,39.88
2022-09-05T16:10:40.967Z,40.19
2022-09-05T16:10:41.777Z,40.34
2022-09-05T16:13:17.203Z,40.08
2022-09-05T16:22:59.585Z,39.68
2022-09-05T16:23:30.263Z,40.25
2022-09-05T16:23:31.434Z,40.25
2022-09-05T16:24:57.803Z,40.08
2022-09-05T16:27:21.724Z,40.76
2022-09-05T16:29:50.537Z,40.66
2022-09-05T16:32:29.335Z,40.82
2022-09-05T16:35:01.726Z,40.98
2022-09-05T16:37:41.610Z,41.86
2022-09-05T16:40:11.748Z,42.04
2022-09-05T16:42:49.421Z,41.94
2022-09-05T16:45:34.838Z,41.81
2022-09-05T16:48:15.184Z,41.57
2022-09-05T16:50:55.389Z,41.63
2022-09-05T16:53:58.215Z,42.60
2022-09-05T16:56:44.537Z,42.88
2022-09-05T16:59:19.281Z,42.88
2022-09-05T17:02:06.106Z,42.44
2022-09-05T17:05:04.266Z,42.08
2022-09-05T17:07:52.687Z,42.92
2022-09-05T17:10:25.615Z,43.42
2022-09-05T17:12:55.875Z,43.73
2022-09-05T17:15:51.652Z,44.76
2022-09-05T17:18:24.974Z,45.55
2022-09-05T17:20:59.202Z,46.31
2022-09-05T17:29:28.935Z,47.36
2022-09-05T17:29:49.406Z,46.94
2022-09-05T17:32:39.507Z,49.14
2022-09-05T17:35:18.469Z,49.84
2022-09-05T17:38:11.709Z,50.42
2022-09-05T17:41:05.224Z,50.90
2022-09-05T17:43:34.978Z,51.21
2022-09-05T17:46:34.610Z,51.14
2022-09-05T17:49:18.023Z,51.45
2022-09-05T17:51:52.313Z,52.05
2022-09-05T17:54:29.999Z,52.06
2022-09-05T17:57:16.404Z,52.11
2022-09-05T17:59:42.895Z,52.27
2022-09-05T18:02:09.446Z,52.44
2022-09-05T18:04:53.807Z,52.57
2022-09-05T18:07:26.287Z,52.22
2022-09-05T18:10:05.946Z,52.32
2022-09-05T18:13:13.486Z,52.31
2022-09-05T18:15:32.493Z,52.19
2022-09-05T18:18:08.678Z,52.37
2022-09-05T18:21:12.253Z,52.62
2022-09-05T18:26:42.762Z,52.42
2022-09-05T18:29:24.724Z,52.29
2022-09-05T18:32:11.258Z,52.37
2022-09-05T18:34:37.665Z,52.44
2022-09-05T18:37:36.506Z,52.40
2022-09-05T18:40:16.665Z,52.39
2022-09-05T18:43:10.352Z,52.85
2022-09-05T18:45:38.860Z,53.04
2022-09-05T18:48:29.999Z,53.07
2022-09-05T18:51:15.308Z,53.04
2022-09-05T18:53:47.393Z,52.98
2022-09-05T18:57:19.879Z,53.32
2022-09-05T18:59:48.404Z,52.98
2022-09-05T19:02:50.303Z,52.66
2022-09-05T19:05:37.852Z,53.07
2022-09-05T19:08:29.108Z,53.22
2022-09-05T19:11:01.673Z,53.65
2022-09-05T19:13:49.012Z,53.61
2022-09-05T19:16:43.787Z,53.53
2022-09-05T19:19:24.939Z,53.10
2022-09-05T19:23:02.652Z,53.06
2022-09-05T19:24:46.066Z,52.95
2022-09-05T19:28:48.545Z,52.75
2022-09-05T19:36:50.763Z,53.08
2022-09-05T19:36:57.369Z,53.67
2022-09-05T19:37:11.015Z,53.67
2022-09-05T19:38:23.681Z,54.07
2022-09-05T19:47:29.782Z,53.92
2022-09-05T19:47:40.057Z,54.13
2022-09-05T19:47:56.351Z,54.71
2022-09-05T19:49:12.887Z,54.25
2022-09-05T19:51:41.191Z,54.69
2022-09-05T19:54:22.176Z,54.57
2022-09-05T19:56:48.776Z,54.48
2022-09-05T19:59:22.816Z,54.76
2022-09-05T20:01:51.632Z,54.85
2022-09-05T20:04:19.516Z,55.32
2022-09-05T20:06:47.541Z,55.21
2022-09-05T20:09:19.411Z,55.33
2022-09-05T20:11:49.656Z,54.95
2022-09-05T20:14:28.928Z,54.82
2022-09-05T20:17:16.845Z,54.96
2022-09-05T20:19:43.920Z,55.04
2022-09-05T20:22:47.913Z,54.96
2022-09-05T20:25:05.583Z,55.08
2022-09-05T20:27:32.084Z,55.00
2022-09-05T20:30:08.246Z,55.36
2022-09-05T20:32:42.120Z,55.22
2022-09-05T20:41:32.140Z,55.05
2022-09-05T20:43:14.456Z,55.43
2022-09-05T20:43:26.645Z,55.53
2022-09-05T20:43:55.792Z,55.49
2022-09-05T20:51:03.986Z,55.81
2022-09-05T20:54:14.520Z,55.61
2022-09-05T20:54:28.316Z,55.74
2022-09-05T20:55:40.052Z,55.79
2022-09-05T20:58:24.665Z,55.84
2022-09-05T21:01:22.764Z,56.05
2022-09-05T21:03:58.780Z,56.27
2022-09-05T21:06:26.667Z,56.58
2022-09-05T21:09:06.873Z,56.54
2022-09-05T21:11:33.862Z,56.41
2022-09-05T21:14:04.318Z,56.85
2022-09-05T21:16:39.837Z,56.68
2022-09-05T21:19:07.668Z,56.71
2022-09-05T21:21:34.790Z,56.79
2022-09-05T21:24:17.269Z,56.72
2022-09-05T21:26:49.509Z,56.91
2022-09-05T21:29:24.955Z,57.49
2022-09-05T21:31:57.670Z,57.63
2022-09-05T21:34:31.118Z,57.23
2022-09-05T21:37:06.569Z,57.15
2022-09-05T21:39:39.816Z,57.49
2022-09-05T21:42:30.699Z,57.86
2022-09-05T21:47:41.946Z,58.10
2022-09-05T21:47:52.357Z,58.28
2022-09-05T21:50:30.702Z,58.36
2022-09-05T21:54:06.563Z,58.45
2022-09-05T21:59:22.459Z,58.61
2022-09-05T21:59:29.147Z,58.48
2022-09-05T22:01:44.665Z,58.51
2022-09-05T22:04:09.271Z,58.69
2022-09-05T22:06:36.752Z,58.86
2022-09-05T22:09:13.363Z,58.54
2022-09-05T22:11:40.971Z,58.94
2022-09-05T22:14:08.959Z,58.80
2022-09-05T22:16:40.050Z,58.68
2022-09-05T22:19:12.608Z,59.15
2022-09-05T22:21:39.859Z,58.92
2022-09-05T22:24:10.167Z,59.47
2022-09-05T22:27:10.749Z,59.43
2022-09-05T22:29:34.375Z,59.69
2022-09-05T22:32:01.125Z,60.05
2022-09-05T22:34:30.828Z,60.27
2022-09-05T22:36:57.480Z,60.04
2022-09-05T22:39:37.187Z,59.98
2022-09-05T22:42:10.633Z,60.42
2022-09-05T22:44:39.427Z,60.67
2022-09-05T22:47:08.388Z,60.67
2022-09-05T22:49:36.433Z,60.68
2022-09-05T22:52:05.367Z,60.27
2022-09-05T22:54:31.904Z,60.00
2022-09-05T22:56:58.346Z,60.18
2022-09-05T22:59:24.754Z,60.14
2022-09-05T23:01:51.433Z,60.40
2022-09-05T23:04:17.997Z,60.46
2022-09-05T23:06:44.404Z,60.49
2022-09-05T23:09:10.824Z,60.72
2022-09-05T23:11:37.292Z,60.72
2022-09-05T23:14:03.770Z,60.78
2022-09-05T23:16:30.151Z,60.78
2022-09-05T23:18:56.566Z,61.02
2022-09-05T23:21:22.982Z,61.06
2022-09-05T23:23:49.466Z,61.62
2022-09-05T23:26:16.132Z,61.66
2022-09-05T23:28:43.721Z,61.95
2022-09-05T23:31:11.276Z,61.98
2022-09-05T23:33:41.474Z,62.10
2022-09-05T23:36:13.464Z,62.29
2022-09-05T23:38:42.241Z,62.72
2022-09-05T23:41:12.788Z,62.79
2022-09-05T23:43:39.233Z,62.63
2022-09-05T23:46:05.924Z,62.49
2022-09-05T23:48:32.345Z,62.90
2022-09-05T23:51:08.433Z,62.77
2022-09-05T23:53:34.891Z,62.94
2022-09-05T23:56:07.678Z,62.83
2022-09-05T23:58:35.569Z,62.58
